sensor_id;sensor_type;location;lat;lon;timestamp;P1;durP1;ratioP1;P2;durP2;ratioP2
18501;SDS011;68437;52.236;5.710;2023-05-10T00:00:46;56.90;;;21.77;;
18501;SDS011;68437;52.236;5.710;2023-05-10T00:03:13;55.78;;;21.40;;
18501;SDS011;68437;52.236;5.710;2023-05-10T00:05:39;56.38;;;21.10;;
18501;SDS011;68437;52.236;5.710;2023-05-10T00:08:06;63.05;;;22.25;;
18501;SDS011;68437;52.236;5.710;2023-05-10T00:10:34;68.68;;;23.33;;
18501;SDS011;68437;52.236;5.710;2023-05-10T00:13:02;65.25;;;23.65;;
18501;SDS011;68437;52.236;5.710;2023-05-10T00:15:29;63.40;;;22.83;;
18501;SDS011;68437;52.236;5.710;2023-05-10T00:17:56;72.93;;;24.45;;
18501;SDS011;68437;52.236;5.710;2023-05-10T00:20:23;74.38;;;26.58;;
18501;SDS011;68437;52.236;5.710;2023-05-10T00:22:50;78.90;;;26.83;;
18501;SDS011;68437;52.236;5.710;2023-05-10T00:25:17;80.60;;;27.58;;
18501;SDS011;68437;52.236;5.710;2023-05-10T00:27:46;77.93;;;27.35;;
18501;SDS011;68437;52.236;5.710;2023-05-10T00:30:15;81.28;;;25.98;;
18501;SDS011;68437;52.236;5.710;2023-05-10T00:32:43;78.22;;;26.25;;
18501;SDS011;68437;52.236;5.710;2023-05-10T00:35:09;73.68;;;25.17;;
18501;SDS011;68437;52.236;5.710;2023-05-10T00:37:38;89.65;;;28.25;;
18501;SDS011;68437;52.236;5.710;2023-05-10T00:40:06;82.40;;;26.73;;
18501;SDS011;68437;52.236;5.710;2023-05-10T00:42:33;83.43;;;27.33;;
18501;SDS011;68437;52.236;5.710;2023-05-10T00:45:01;82.90;;;26.90;;
18501;SDS011;68437;52.236;5.710;2023-05-10T00:47:29;88.60;;;28.50;;
18501;SDS011;68437;52.236;5.710;2023-05-10T00:49:55;81.88;;;28.30;;
18501;SDS011;68437;52.236;5.710;2023-05-10T00:52:22;101.47;;;30.30;;
18501;SDS011;68437;52.236;5.710;2023-05-10T00:54:51;99.65;;;30.75;;
18501;SDS011;68437;52.236;5.710;2023-05-10T00:57:18;101.97;;;30.90;;
18501;SDS011;68437;52.236;5.710;2023-05-10T00:59:45;96.20;;;30.38;;
18501;SDS011;68437;52.236;5.710;2023-05-10T01:02:13;100.65;;;30.50;;
18501;SDS011;68437;52.236;5.710;2023-05-10T01:04:40;100.47;;;30.73;;
18501;SDS011;68437;52.236;5.710;2023-05-10T01:07:07;98.10;;;30.73;;
18501;SDS011;68437;52.236;5.710;2023-05-10T01:09:34;97.20;;;31.17;;
18501;SDS011;68437;52.236;5.710;2023-05-10T01:12:01;110.50;;;33.00;;
18501;SDS011;68437;52.236;5.710;2023-05-10T01:14:31;106.60;;;31.58;;
18501;SDS011;68437;52.236;5.710;2023-05-10T01:16:59;115.60;;;33.50;;
18501;SDS011;68437;52.236;5.710;2023-05-10T01:19:29;110.80;;;32.63;;
18501;SDS011;68437;52.236;5.710;2023-05-10T01:22:03;116.65;;;32.85;;
18501;SDS011;68437;52.236;5.710;2023-05-10T01:24:48;123.93;;;33.88;;
18501;SDS011;68437;52.236;5.710;2023-05-10T01:27:44;137.75;;;34.22;;
18501;SDS011;68437;52.236;5.710;2023-05-10T01:33:34;136.02;;;34.72;;
18501;SDS011;68437;52.236;5.710;2023-05-10T01:36:05;137.93;;;35.00;;
18501;SDS011;68437;52.236;5.710;2023-05-10T01:38:41;140.13;;;35.67;;
18501;SDS011;68437;52.236;5.710;2023-05-10T01:41:16;147.88;;;35.47;;
18501;SDS011;68437;52.236;5.710;2023-05-10T01:43:48;134.82;;;35.58;;
18501;SDS011;68437;52.236;5.710;2023-05-10T01:46:24;138.35;;;36.55;;
18501;SDS011;68437;52.236;5.710;2023-05-10T01:48:57;146.82;;;37.13;;
18501;SDS011;68437;52.236;5.710;2023-05-10T01:51:27;136.85;;;36.35;;
18501;SDS011;68437;52.236;5.710;2023-05-10T01:54:02;149.70;;;38.67;;
18501;SDS011;68437;52.236;5.710;2023-05-10T01:56:32;151.70;;;38.65;;
18501;SDS011;68437;52.236;5.710;2023-05-10T01:59:00;164.00;;;40.13;;
18501;SDS011;68437;52.236;5.710;2023-05-10T02:01:32;168.55;;;40.95;;
18501;SDS011;68437;52.236;5.710;2023-05-10T02:04:02;173.88;;;41.97;;
18501;SDS011;68437;52.236;5.710;2023-05-10T02:06:30;174.88;;;43.10;;
18501;SDS011;68437;52.236;5.710;2023-05-10T02:08:58;181.10;;;42.47;;
18501;SDS011;68437;52.236;5.710;2023-05-10T02:11:27;177.82;;;42.92;;
18501;SDS011;68437;52.236;5.710;2023-05-10T02:13:55;190.82;;;44.75;;
18501;SDS011;68437;52.236;5.710;2023-05-10T02:16:24;185.65;;;44.10;;
18501;SDS011;68437;52.236;5.710;2023-05-10T02:18:55;189.13;;;46.42;;
18501;SDS011;68437;52.236;5.710;2023-05-10T02:21:25;172.77;;;42.92;;
18501;SDS011;68437;52.236;5.710;2023-05-10T02:23:53;179.98;;;44.88;;
18501;SDS011;68437;52.236;5.710;2023-05-10T02:26:21;196.05;;;45.85;;
18501;SDS011;68437;52.236;5.710;2023-05-10T02:28:50;205.45;;;46.70;;
18501;SDS011;68437;52.236;5.710;2023-05-10T02:31:19;186.52;;;46.97;;
18501;SDS011;68437;52.236;5.710;2023-05-10T02:33:47;197.32;;;46.33;;
18501;SDS011;68437;52.236;5.710;2023-05-10T02:36:15;187.50;;;45.88;;
18501;SDS011;68437;52.236;5.710;2023-05-10T02:38:43;186.65;;;46.95;;
18501;SDS011;68437;52.236;5.710;2023-05-10T02:41:12;202.20;;;48.85;;
18501;SDS011;68437;52.236;5.710;2023-05-10T02:43:40;205.05;;;48.83;;
18501;SDS011;68437;52.236;5.710;2023-05-10T02:46:08;206.60;;;47.90;;
18501;SDS011;68437;52.236;5.710;2023-05-10T02:48:34;203.05;;;47.63;;
18501;SDS011;68437;52.236;5.710;2023-05-10T02:51:03;208.20;;;47.65;;
18501;SDS011;68437;52.236;5.710;2023-05-10T02:53:33;203.52;;;47.97;;
18501;SDS011;68437;52.236;5.710;2023-05-10T02:56:05;203.02;;;48.05;;
18501;SDS011;68437;52.236;5.710;2023-05-10T02:58:38;203.60;;;47.65;;
18501;SDS011;68437;52.236;5.710;2023-05-10T03:01:08;198.20;;;47.20;;
18501;SDS011;68437;52.236;5.710;2023-05-10T03:03:35;199.35;;;49.67;;
18501;SDS011;68437;52.236;5.710;2023-05-10T03:06:01;185.70;;;47.88;;
18501;SDS011;68437;52.236;5.710;2023-05-10T03:08:29;200.95;;;49.83;;
18501;SDS011;68437;52.236;5.710;2023-05-10T03:11:01;206.15;;;50.80;;
18501;SDS011;68437;52.236;5.710;2023-05-10T03:13:44;197.80;;;48.55;;
18501;SDS011;68437;52.236;5.710;2023-05-10T03:16:19;213.80;;;49.47;;
18501;SDS011;68437;52.236;5.710;2023-05-10T03:18:50;187.27;;;48.10;;
18501;SDS011;68437;52.236;5.710;2023-05-10T03:21:28;212.45;;;50.05;;
18501;SDS011;68437;52.236;5.710;2023-05-10T03:23:59;202.40;;;49.95;;
18501;SDS011;68437;52.236;5.710;2023-05-10T03:26:34;196.20;;;49.05;;
18501;SDS011;68437;52.236;5.710;2023-05-10T03:29:02;194.55;;;48.20;;
18501;SDS011;68437;52.236;5.710;2023-05-10T03:31:31;191.77;;;47.03;;
18501;SDS011;68437;52.236;5.710;2023-05-10T03:33:58;193.13;;;46.65;;
18501;SDS011;68437;52.236;5.710;2023-05-10T03:36:25;189.65;;;47.17;;
18501;SDS011;68437;52.236;5.710;2023-05-10T03:38:52;205.75;;;48.28;;
18501;SDS011;68437;52.236;5.710;2023-05-10T03:41:18;193.45;;;47.33;;
18501;SDS011;68437;52.236;5.710;2023-05-10T03:43:46;183.25;;;46.28;;
18501;SDS011;68437;52.236;5.710;2023-05-10T03:46:13;180.80;;;45.72;;
18501;SDS011;68437;52.236;5.710;2023-05-10T03:48:40;175.38;;;45.58;;
18501;SDS011;68437;52.236;5.710;2023-05-10T03:51:07;184.25;;;44.75;;
18501;SDS011;68437;52.236;5.710;2023-05-10T03:53:34;200.73;;;46.17;;
18501;SDS011;68437;52.236;5.710;2023-05-10T03:56:00;203.98;;;46.65;;
18501;SDS011;68437;52.236;5.710;2023-05-10T03:58:27;203.38;;;46.40;;
18501;SDS011;68437;52.236;5.710;2023-05-10T04:00:55;191.55;;;45.40;;
18501;SDS011;68437;52.236;5.710;2023-05-10T04:03:22;206.38;;;46.90;;
18501;SDS011;68437;52.236;5.710;2023-05-10T04:05:57;196.38;;;44.45;;
18501;SDS011;68437;52.236;5.710;2023-05-10T04:08:25;214.25;;;46.25;;
18501;SDS011;68437;52.236;5.710;2023-05-10T04:10:52;194.80;;;45.25;;
18501;SDS011;68437;52.236;5.710;2023-05-10T04:13:19;206.98;;;44.83;;
18501;SDS011;68437;52.236;5.710;2023-05-10T04:15:46;202.68;;;43.70;;
18501;SDS011;68437;52.236;5.710;2023-05-10T04:18:14;218.82;;;45.10;;
18501;SDS011;68437;52.236;5.710;2023-05-10T04:20:42;199.10;;;44.10;;
18501;SDS011;68437;52.236;5.710;2023-05-10T04:23:08;218.30;;;46.40;;
18501;SDS011;68437;52.236;5.710;2023-05-10T04:25:35;223.82;;;46.33;;
18501;SDS011;68437;52.236;5.710;2023-05-10T04:28:02;213.65;;;44.53;;
18501;SDS011;68437;52.236;5.710;2023-05-10T04:30:29;217.45;;;46.90;;
18501;SDS011;68437;52.236;5.710;2023-05-10T04:32:59;209.50;;;46.40;;
18501;SDS011;68437;52.236;5.710;2023-05-10T04:35:30;212.43;;;46.00;;
18501;SDS011;68437;52.236;5.710;2023-05-10T04:37:57;223.13;;;47.00;;
18501;SDS011;68437;52.236;5.710;2023-05-10T04:40:24;204.05;;;44.92;;
18501;SDS011;68437;52.236;5.710;2023-05-10T04:42:50;208.68;;;45.03;;
18501;SDS011;68437;52.236;5.710;2023-05-10T04:45:17;215.73;;;46.05;;
18501;SDS011;68437;52.236;5.710;2023-05-10T04:47:44;205.98;;;45.25;;
18501;SDS011;68437;52.236;5.710;2023-05-10T04:50:13;212.88;;;46.10;;
18501;SDS011;68437;52.236;5.710;2023-05-10T04:52:41;205.80;;;44.40;;
18501;SDS011;68437;52.236;5.710;2023-05-10T04:55:08;222.93;;;45.53;;
18501;SDS011;68437;52.236;5.710;2023-05-10T04:57:35;205.27;;;44.97;;
18501;SDS011;68437;52.236;5.710;2023-05-10T05:00:02;212.52;;;44.45;;
18501;SDS011;68437;52.236;5.710;2023-05-10T05:02:29;208.30;;;43.65;;
18501;SDS011;68437;52.236;5.710;2023-05-10T05:04:58;229.23;;;44.67;;
18501;SDS011;68437;52.236;5.710;2023-05-10T05:07:25;218.75;;;45.10;;
18501;SDS011;68437;52.236;5.710;2023-05-10T05:09:53;213.30;;;44.63;;
18501;SDS011;68437;52.236;5.710;2023-05-10T05:12:20;219.15;;;43.67;;
18501;SDS011;68437;52.236;5.710;2023-05-10T05:14:47;225.10;;;45.75;;
18501;SDS011;68437;52.236;5.710;2023-05-10T05:17:14;220.65;;;43.85;;
18501;SDS011;68437;52.236;5.710;2023-05-10T05:19:41;243.25;;;45.50;;
18501;SDS011;68437;52.236;5.710;2023-05-10T05:22:07;236.30;;;44.65;;
18501;SDS011;68437;52.236;5.710;2023-05-10T05:24:35;236.55;;;45.30;;
18501;SDS011;68437;52.236;5.710;2023-05-10T05:27:04;220.98;;;43.42;;
18501;SDS011;68437;52.236;5.710;2023-05-10T05:29:32;256.38;;;45.78;;
18501;SDS011;68437;52.236;5.710;2023-05-10T05:31:58;231.32;;;43.45;;
18501;SDS011;68437;52.236;5.710;2023-05-10T05:34:25;224.15;;;44.58;;
18501;SDS011;68437;52.236;5.710;2023-05-10T05:36:55;261.15;;;45.10;;
18501;SDS011;68437;52.236;5.710;2023-05-10T05:39:24;251.45;;;44.85;;
18501;SDS011;68437;52.236;5.710;2023-05-10T05:41:51;255.32;;;44.53;;
18501;SDS011;68437;52.236;5.710;2023-05-10T05:44:19;250.73;;;44.35;;
18501;SDS011;68437;52.236;5.710;2023-05-10T05:46:46;252.80;;;43.80;;
18501;SDS011;68437;52.236;5.710;2023-05-10T05:49:12;244.52;;;44.65;;
18501;SDS011;68437;52.236;5.710;2023-05-10T05:51:39;236.52;;;44.25;;
18501;SDS011;68437;52.236;5.710;2023-05-10T05:54:06;240.55;;;46.05;;
18501;SDS011;68437;52.236;5.710;2023-05-10T05:56:33;251.13;;;46.95;;
18501;SDS011;68437;52.236;5.710;2023-05-10T05:59:00;215.75;;;45.15;;
18501;SDS011;68437;52.236;5.710;2023-05-10T06:01:28;227.05;;;47.10;;
18501;SDS011;68437;52.236;5.710;2023-05-10T06:03:55;203.38;;;45.85;;
18501;SDS011;68437;52.236;5.710;2023-05-10T06:06:21;217.77;;;46.45;;
18501;SDS011;68437;52.236;5.710;2023-05-10T06:08:48;200.25;;;45.55;;
18501;SDS011;68437;52.236;5.710;2023-05-10T06:11:15;212.00;;;47.50;;
18501;SDS011;68437;52.236;5.710;2023-05-10T06:13:42;204.93;;;47.83;;
18501;SDS011;68437;52.236;5.710;2023-05-10T06:16:09;198.23;;;45.97;;
18501;SDS011;68437;52.236;5.710;2023-05-10T06:18:37;192.27;;;45.58;;
18501;SDS011;68437;52.236;5.710;2023-05-10T06:21:04;175.80;;;45.55;;
18501;SDS011;68437;52.236;5.710;2023-05-10T06:23:31;177.00;;;44.53;;
18501;SDS011;68437;52.236;5.710;2023-05-10T06:25:58;178.13;;;45.25;;
18501;SDS011;68437;52.236;5.710;2023-05-10T06:28:24;170.65;;;44.17;;
18501;SDS011;68437;52.236;5.710;2023-05-10T06:30:51;170.73;;;43.67;;
18501;SDS011;68437;52.236;5.710;2023-05-10T06:33:18;164.50;;;41.75;;
18501;SDS011;68437;52.236;5.710;2023-05-10T06:35:46;175.80;;;42.40;;
18501;SDS011;68437;52.236;5.710;2023-05-10T06:38:13;160.57;;;42.08;;
18501;SDS011;68437;52.236;5.710;2023-05-10T06:40:41;175.35;;;41.45;;
18501;SDS011;68437;52.236;5.710;2023-05-10T06:43:08;157.55;;;38.85;;
18501;SDS011;68437;52.236;5.710;2023-05-10T06:45:35;162.25;;;39.00;;
18501;SDS011;68437;52.236;5.710;2023-05-10T06:48:02;166.25;;;38.88;;
18501;SDS011;68437;52.236;5.710;2023-05-10T06:50:29;159.73;;;39.60;;
18501;SDS011;68437;52.236;5.710;2023-05-10T06:52:57;166.45;;;40.30;;
18501;SDS011;68437;52.236;5.710;2023-05-10T06:55:24;153.93;;;38.80;;
18501;SDS011;68437;52.236;5.710;2023-05-10T06:57:51;166.13;;;40.17;;
18501;SDS011;68437;52.236;5.710;2023-05-10T07:00:18;162.45;;;39.60;;
18501;SDS011;68437;52.236;5.710;2023-05-10T07:02:45;165.35;;;39.40;;
18501;SDS011;68437;52.236;5.710;2023-05-10T07:05:12;170.85;;;40.72;;
18501;SDS011;68437;52.236;5.710;2023-05-10T07:07:40;149.25;;;38.38;;
18501;SDS011;68437;52.236;5.710;2023-05-10T07:10:09;135.77;;;37.55;;
18501;SDS011;68437;52.236;5.710;2023-05-10T07:12:36;135.45;;;37.72;;
18501;SDS011;68437;52.236;5.710;2023-05-10T07:15:03;134.20;;;37.33;;
18501;SDS011;68437;52.236;5.710;2023-05-10T07:17:31;134.55;;;38.05;;
18501;SDS011;68437;52.236;5.710;2023-05-10T07:19:58;141.48;;;38.28;;
18501;SDS011;68437;52.236;5.710;2023-05-10T07:22:25;130.20;;;37.80;;
18501;SDS011;68437;52.236;5.710;2023-05-10T07:24:52;122.68;;;36.10;;
18501;SDS011;68437;52.236;5.710;2023-05-10T07:27:20;117.55;;;36.70;;
18501;SDS011;68437;52.236;5.710;2023-05-10T07:29:47;122.30;;;37.78;;
18501;SDS011;68437;52.236;5.710;2023-05-10T07:32:14;112.25;;;36.15;;
18501;SDS011;68437;52.236;5.710;2023-05-10T07:34:41;101.85;;;32.33;;
18501;SDS011;68437;52.236;5.710;2023-05-10T07:37:08;90.80;;;31.15;;
18501;SDS011;68437;52.236;5.710;2023-05-10T07:39:34;81.63;;;30.38;;
18501;SDS011;68437;52.236;5.710;2023-05-10T07:42:02;87.20;;;29.77;;
18501;SDS011;68437;52.236;5.710;2023-05-10T07:44:30;85.65;;;30.92;;
18501;SDS011;68437;52.236;5.710;2023-05-10T07:46:57;97.43;;;30.42;;
18501;SDS011;68437;52.236;5.710;2023-05-10T07:49:25;78.75;;;27.25;;
18501;SDS011;68437;52.236;5.710;2023-05-10T07:51:52;80.82;;;28.25;;
18501;SDS011;68437;52.236;5.710;2023-05-10T07:54:19;70.28;;;25.70;;
18501;SDS011;68437;52.236;5.710;2023-05-10T07:56:46;70.82;;;27.42;;
18501;SDS011;68437;52.236;5.710;2023-05-10T07:59:14;69.13;;;25.67;;
18501;SDS011;68437;52.236;5.710;2023-05-10T08:01:44;75.72;;;26.95;;
18501;SDS011;68437;52.236;5.710;2023-05-10T08:04:11;78.00;;;28.30;;
18501;SDS011;68437;52.236;5.710;2023-05-10T08:06:38;76.43;;;26.98;;
18501;SDS011;68437;52.236;5.710;2023-05-10T08:09:05;75.72;;;27.17;;
18501;SDS011;68437;52.236;5.710;2023-05-10T08:11:31;69.07;;;25.05;;
18501;SDS011;68437;52.236;5.710;2023-05-10T08:13:58;69.25;;;24.95;;
18501;SDS011;68437;52.236;5.710;2023-05-10T08:16:25;68.22;;;25.05;;
18501;SDS011;68437;52.236;5.710;2023-05-10T08:18:53;61.40;;;24.13;;
18501;SDS011;68437;52.236;5.710;2023-05-10T08:21:21;63.15;;;25.05;;
18501;SDS011;68437;52.236;5.710;2023-05-10T08:23:47;65.53;;;24.95;;
18501;SDS011;68437;52.236;5.710;2023-05-10T08:26:14;69.05;;;25.25;;
18501;SDS011;68437;52.236;5.710;2023-05-10T08:28:41;66.70;;;26.80;;
18501;SDS011;68437;52.236;5.710;2023-05-10T08:31:08;61.33;;;24.52;;
18501;SDS011;68437;52.236;5.710;2023-05-10T08:33:35;62.58;;;24.48;;
18501;SDS011;68437;52.236;5.710;2023-05-10T08:36:03;55.67;;;23.48;;
18501;SDS011;68437;52.236;5.710;2023-05-10T08:38:30;64.13;;;23.48;;
18501;SDS011;68437;52.236;5.710;2023-05-10T08:40:57;57.10;;;21.88;;
18501;SDS011;68437;52.236;5.710;2023-05-10T08:43:26;53.65;;;21.60;;
18501;SDS011;68437;52.236;5.710;2023-05-10T08:45:55;49.25;;;20.17;;
18501;SDS011;68437;52.236;5.710;2023-05-10T08:48:23;48.35;;;20.08;;
18501;SDS011;68437;52.236;5.710;2023-05-10T08:50:52;47.90;;;19.80;;
18501;SDS011;68437;52.236;5.710;2023-05-10T08:53:21;42.20;;;19.40;;
18501;SDS011;68437;52.236;5.710;2023-05-10T08:55:52;43.50;;;19.42;;
18501;SDS011;68437;52.236;5.710;2023-05-10T08:58:19;43.85;;;19.17;;
18501;SDS011;68437;52.236;5.710;2023-05-10T09:00:48;46.65;;;19.63;;
18501;SDS011;68437;52.236;5.710;2023-05-10T09:03:20;42.78;;;18.83;;
18501;SDS011;68437;52.236;5.710;2023-05-10T09:05:47;52.83;;;19.45;;
18501;SDS011;68437;52.236;5.710;2023-05-10T09:08:15;39.28;;;18.48;;
18501;SDS011;68437;52.236;5.710;2023-05-10T09:10:44;47.72;;;19.23;;
18501;SDS011;68437;52.236;5.710;2023-05-10T09:13:12;44.42;;;19.35;;
18501;SDS011;68437;52.236;5.710;2023-05-10T09:15:41;37.13;;;18.17;;
18501;SDS011;68437;52.236;5.710;2023-05-10T09:18:08;44.83;;;19.30;;
18501;SDS011;68437;52.236;5.710;2023-05-10T09:20:34;41.00;;;17.65;;
18501;SDS011;68437;52.236;5.710;2023-05-10T09:23:01;37.30;;;16.40;;
18501;SDS011;68437;52.236;5.710;2023-05-10T09:25:28;39.45;;;16.35;;
18501;SDS011;68437;52.236;5.710;2023-05-10T09:27:56;37.03;;;15.77;;
18501;SDS011;68437;52.236;5.710;2023-05-10T09:30:23;31.60;;;14.18;;
18501;SDS011;68437;52.236;5.710;2023-05-10T09:32:51;33.38;;;14.98;;
18501;SDS011;68437;52.236;5.710;2023-05-10T09:35:20;27.13;;;14.00;;
18501;SDS011;68437;52.236;5.710;2023-05-10T09:37:48;31.05;;;14.32;;
18501;SDS011;68437;52.236;5.710;2023-05-10T09:40:17;31.23;;;14.68;;
18501;SDS011;68437;52.236;5.710;2023-05-10T09:42:51;29.38;;;13.88;;
18501;SDS011;68437;52.236;5.710;2023-05-10T09:45:20;26.50;;;12.85;;
18501;SDS011;68437;52.236;5.710;2023-05-10T09:47:52;26.48;;;13.40;;
18501;SDS011;68437;52.236;5.710;2023-05-10T09:50:21;28.10;;;13.32;;
18501;SDS011;68437;52.236;5.710;2023-05-10T09:52:49;26.48;;;13.55;;
18501;SDS011;68437;52.236;5.710;2023-05-10T09:55:17;29.10;;;14.68;;
18501;SDS011;68437;52.236;5.710;2023-05-10T09:57:45;31.38;;;14.82;;
18501;SDS011;68437;52.236;5.710;2023-05-10T10:00:16;26.52;;;14.25;;
18501;SDS011;68437;52.236;5.710;2023-05-10T10:02:53;27.58;;;12.95;;
18501;SDS011;68437;52.236;5.710;2023-05-10T10:05:22;23.13;;;11.95;;
18501;SDS011;68437;52.236;5.710;2023-05-10T10:07:55;20.85;;;10.32;;
18501;SDS011;68437;52.236;5.710;2023-05-10T10:10:22;20.20;;;10.90;;
18501;SDS011;68437;52.236;5.710;2023-05-10T10:12:50;20.52;;;10.65;;
18501;SDS011;68437;52.236;5.710;2023-05-10T10:15:17;19.52;;;10.80;;
18501;SDS011;68437;52.236;5.710;2023-05-10T10:17:44;20.98;;;11.27;;
18501;SDS011;68437;52.236;5.710;2023-05-10T10:20:14;23.65;;;11.75;;
18501;SDS011;68437;52.236;5.710;2023-05-10T10:22:41;26.38;;;11.75;;
18501;SDS011;68437;52.236;5.710;2023-05-10T10:25:09;22.92;;;11.60;;
18501;SDS011;68437;52.236;5.710;2023-05-10T10:27:40;22.63;;;11.75;;
18501;SDS011;68437;52.236;5.710;2023-05-10T10:30:18;25.88;;;12.38;;
18501;SDS011;68437;52.236;5.710;2023-05-10T10:33:11;21.58;;;11.18;;
18501;SDS011;68437;52.236;5.710;2023-05-10T10:35:52;22.50;;;10.95;;
18501;SDS011;68437;52.236;5.710;2023-05-10T10:38:19;18.80;;;10.23;;
18501;SDS011;68437;52.236;5.710;2023-05-10T10:40:47;18.33;;;10.18;;
18501;SDS011;68437;52.236;5.710;2023-05-10T10:43:21;22.80;;;10.38;;
18501;SDS011;68437;52.236;5.710;2023-05-10T10:48:38;20.98;;;10.32;;
18501;SDS011;68437;52.236;5.710;2023-05-10T10:51:07;19.65;;;10.00;;
18501;SDS011;68437;52.236;5.710;2023-05-10T10:53:34;19.40;;;9.98;;
18501;SDS011;68437;52.236;5.710;2023-05-10T10:56:06;15.50;;;7.90;;
18501;SDS011;68437;52.236;5.710;2023-05-10T10:58:34;15.10;;;7.75;;
18501;SDS011;68437;52.236;5.710;2023-05-10T11:01:12;15.95;;;7.68;;
18501;SDS011;68437;52.236;5.710;2023-05-10T11:03:40;16.35;;;7.82;;
18501;SDS011;68437;52.236;5.710;2023-05-10T11:06:09;14.95;;;7.95;;
18501;SDS011;68437;52.236;5.710;2023-05-10T11:08:41;20.33;;;7.68;;
18501;SDS011;68437;52.236;5.710;2023-05-10T11:11:09;14.85;;;7.80;;
18501;SDS011;68437;52.236;5.710;2023-05-10T11:13:40;14.68;;;8.02;;
18501;SDS011;68437;52.236;5.710;2023-05-10T11:16:12;14.57;;;7.68;;
18501;SDS011;68437;52.236;5.710;2023-05-10T11:18:41;14.32;;;7.15;;
18501;SDS011;68437;52.236;5.710;2023-05-10T11:21:29;13.15;;;6.45;;
18501;SDS011;68437;52.236;5.710;2023-05-10T11:23:58;11.52;;;6.30;;
18501;SDS011;68437;52.236;5.710;2023-05-10T11:26:25;15.13;;;7.43;;
18501;SDS011;68437;52.236;5.710;2023-05-10T11:28:57;14.55;;;7.80;;
18501;SDS011;68437;52.236;5.710;2023-05-10T11:31:25;15.48;;;8.23;;
18501;SDS011;68437;52.236;5.710;2023-05-10T11:33:53;16.20;;;8.18;;
18501;SDS011;68437;52.236;5.710;2023-05-10T11:36:21;14.80;;;7.63;;
18501;SDS011;68437;52.236;5.710;2023-05-10T11:38:50;16.27;;;8.60;;
18501;SDS011;68437;52.236;5.710;2023-05-10T11:41:18;15.73;;;8.15;;
18501;SDS011;68437;52.236;5.710;2023-05-10T11:43:47;15.20;;;8.05;;
18501;SDS011;68437;52.236;5.710;2023-05-10T11:46:16;15.07;;;8.40;;
18501;SDS011;68437;52.236;5.710;2023-05-10T11:48:45;15.13;;;9.13;;
18501;SDS011;68437;52.236;5.710;2023-05-10T11:51:15;16.90;;;9.27;;
18501;SDS011;68437;52.236;5.710;2023-05-10T11:53:41;19.98;;;9.75;;
18501;SDS011;68437;52.236;5.710;2023-05-10T11:56:10;17.25;;;9.10;;
18501;SDS011;68437;52.236;5.710;2023-05-10T11:58:37;17.55;;;9.63;;
18501;SDS011;68437;52.236;5.710;2023-05-10T12:01:05;20.33;;;9.98;;
18501;SDS011;68437;52.236;5.710;2023-05-10T12:03:34;17.33;;;9.85;;
18501;SDS011;68437;52.236;5.710;2023-05-10T12:06:01;16.90;;;9.38;;
18501;SDS011;68437;52.236;5.710;2023-05-10T12:08:32;17.38;;;9.65;;
18501;SDS011;68437;52.236;5.710;2023-05-10T12:11:06;18.52;;;10.00;;
18501;SDS011;68437;52.236;5.710;2023-05-10T12:13:38;16.50;;;9.75;;
18501;SDS011;68437;52.236;5.710;2023-05-10T12:16:12;15.65;;;9.65;;
18501;SDS011;68437;52.236;5.710;2023-05-10T12:18:40;16.80;;;9.35;;
18501;SDS011;68437;52.236;5.710;2023-05-10T12:21:08;18.73;;;10.02;;
18501;SDS011;68437;52.236;5.710;2023-05-10T12:23:36;18.25;;;9.93;;
18501;SDS011;68437;52.236;5.710;2023-05-10T12:26:03;18.80;;;10.05;;
18501;SDS011;68437;52.236;5.710;2023-05-10T12:28:31;16.80;;;9.65;;
18501;SDS011;68437;52.236;5.710;2023-05-10T12:31:00;18.52;;;10.30;;
18501;SDS011;68437;52.236;5.710;2023-05-10T12:33:27;19.05;;;10.05;;
18501;SDS011;68437;52.236;5.710;2023-05-10T12:36:02;19.90;;;10.75;;
18501;SDS011;68437;52.236;5.710;2023-05-10T12:38:29;20.10;;;10.63;;
18501;SDS011;68437;52.236;5.710;2023-05-10T12:40:58;19.55;;;10.25;;
18501;SDS011;68437;52.236;5.710;2023-05-10T12:43:28;19.63;;;10.00;;
18501;SDS011;68437;52.236;5.710;2023-05-10T12:45:55;16.25;;;9.65;;
18501;SDS011;68437;52.236;5.710;2023-05-10T12:48:23;20.88;;;10.70;;
18501;SDS011;68437;52.236;5.710;2023-05-10T12:50:50;20.73;;;9.55;;
18501;SDS011;68437;52.236;5.710;2023-05-10T12:53:17;13.90;;;8.05;;
18501;SDS011;68437;52.236;5.710;2023-05-10T12:55:44;12.60;;;7.35;;
18501;SDS011;68437;52.236;5.710;2023-05-10T12:58:11;12.65;;;7.25;;
18501;SDS011;68437;52.236;5.710;2023-05-10T13:00:38;14.70;;;7.03;;
18501;SDS011;68437;52.236;5.710;2023-05-10T13:03:05;13.43;;;7.43;;
18501;SDS011;68437;52.236;5.710;2023-05-10T13:05:33;14.30;;;7.07;;
18501;SDS011;68437;52.236;5.710;2023-05-10T13:08:00;18.33;;;7.60;;
18501;SDS011;68437;52.236;5.710;2023-05-10T13:10:28;14.13;;;7.00;;
18501;SDS011;68437;52.236;5.710;2023-05-10T13:12:56;10.90;;;6.68;;
18501;SDS011;68437;52.236;5.710;2023-05-10T13:15:23;10.57;;;6.70;;
18501;SDS011;68437;52.236;5.710;2023-05-10T13:17:51;12.40;;;7.00;;
18501;SDS011;68437;52.236;5.710;2023-05-10T13:20:18;14.57;;;7.25;;
18501;SDS011;68437;52.236;5.710;2023-05-10T13:22:46;16.70;;;7.32;;
18501;SDS011;68437;52.236;5.710;2023-05-10T13:25:13;11.07;;;7.20;;
18501;SDS011;68437;52.236;5.710;2023-05-10T13:27:40;15.73;;;7.50;;
18501;SDS011;68437;52.236;5.710;2023-05-10T13:30:07;14.15;;;7.57;;
18501;SDS011;68437;52.236;5.710;2023-05-10T13:32:34;13.75;;;7.50;;
18501;SDS011;68437;52.236;5.710;2023-05-10T13:35:01;11.13;;;7.00;;
18501;SDS011;68437;52.236;5.710;2023-05-10T13:37:29;11.70;;;7.07;;
18501;SDS011;68437;52.236;5.710;2023-05-10T13:39:57;13.35;;;7.60;;
18501;SDS011;68437;52.236;5.710;2023-05-10T13:42:24;13.88;;;7.22;;
18501;SDS011;68437;52.236;5.710;2023-05-10T13:44:52;14.68;;;7.95;;
18501;SDS011;68437;52.236;5.710;2023-05-10T13:47:18;12.32;;;6.78;;
18501;SDS011;68437;52.236;5.710;2023-05-10T13:49:46;14.63;;;7.32;;
18501;SDS011;68437;52.236;5.710;2023-05-10T13:52:13;12.40;;;7.40;;
18501;SDS011;68437;52.236;5.710;2023-05-10T13:54:40;13.90;;;7.63;;
18501;SDS011;68437;52.236;5.710;2023-05-10T13:57:08;12.60;;;6.75;;
18501;SDS011;68437;52.236;5.710;2023-05-10T13:59:37;15.45;;;7.97;;
18501;SDS011;68437;52.236;5.710;2023-05-10T14:02:04;11.35;;;6.47;;
18501;SDS011;68437;52.236;5.710;2023-05-10T14:04:31;12.70;;;6.63;;
18501;SDS011;68437;52.236;5.710;2023-05-10T14:07:00;13.88;;;6.90;;
18501;SDS011;68437;52.236;5.710;2023-05-10T14:09:27;10.55;;;6.03;;
18501;SDS011;68437;52.236;5.710;2023-05-10T14:11:54;12.20;;;6.00;;
18501;SDS011;68437;52.236;5.710;2023-05-10T14:14:22;10.82;;;6.22;;
18501;SDS011;68437;52.236;5.710;2023-05-10T14:16:49;13.52;;;6.82;;
18501;SDS011;68437;52.236;5.710;2023-05-10T14:19:15;12.48;;;6.90;;
18501;SDS011;68437;52.236;5.710;2023-05-10T14:21:45;13.93;;;6.25;;
18501;SDS011;68437;52.236;5.710;2023-05-10T14:24:11;12.10;;;5.97;;
18501;SDS011;68437;52.236;5.710;2023-05-10T14:26:38;12.32;;;6.20;;
18501;SDS011;68437;52.236;5.710;2023-05-10T14:29:05;11.00;;;6.32;;
18501;SDS011;68437;52.236;5.710;2023-05-10T14:31:33;13.93;;;6.63;;